Time;durP1;ratioP1;P1;durP2;ratioP2;P2;SDS_P1;SDS_P2;PMS_P1;PMS_P2;Temp;Humidity;BMP_temperature;BMP_pressure;BME280_temperature;BME280_humidity;BME280_pressure;Samples;Min_cycle;Max_cycle;Signal;HPM_P1;HPM_P2
2022/11/22 04:55:22;;;;;;;15.63;7.97;;;;;;;1.45;100.00;99497.78;6170995;28;20164;31
2022/11/22 04:58:25;;;;;;;16.27;8.50;;;;;;;1.38;100.00;99504.66;5253416;33;33612;-83
2022/11/22 05:01:28;;;;;;;13.82;7.72;;;;;;;1.21;100.00;99510.66;5264824;33;33685;-83
2022/11/22 05:04:31;;;;;;;12.93;6.97;;;;;;;1.17;100.00;99498.63;5268280;33;34098;-83
2022/11/22 05:07:33;;;;;;;14.90;7.78;;;;;;;1.12;100.00;99510.50;5243070;33;32011;-83
2022/11/22 05:14:14;;;;;;;12.98;7.37;;;;;;;1.01;100.00;99515.09;5218183;33;33694;-83
2022/11/22 05:17:17;;;;;;;15.68;7.82;;;;;;;0.88;100.00;99520.66;5254348;33;33792;-84
2022/11/22 05:20:20;;;;;;;12.80;7.45;;;;;;;0.84;100.00;99517.44;5254684;33;33613;-83
2022/11/22 05:26:44;;;;;;;13.50;7.57;;;;;;;0.53;100.00;99521.97;5254781;33;33954;-84
2022/11/22 05:29:47;;;;;;;14.20;8.23;;;;;;;0.49;100.00;99527.66;5254744;33;33700;-84
2022/11/22 05:32:49;;;;;;;14.55;7.03;;;;;;;0.47;100.00;99522.50;5254525;33;33820;-84
2022/11/22 05:35:58;;;;;;;12.25;6.95;;;;;;;0.37;100.00;99517.16;5254739;33;33502;-84
2022/11/22 05:39:01;;;;;;;14.70;7.72;;;;;;;0.34;100.00;99528.03;5254095;33;34900;-84
2022/11/22 05:42:04;;;;;;;14.98;7.50;;;;;;;0.29;100.00;99535.53;5254244;33;33864;-83
2022/11/22 05:45:07;;;;;;;15.88;8.38;;;;;;;0.29;100.00;99532.88;5254357;33;33633;-84
2022/11/22 05:48:10;;;;;;;15.80;8.57;;;;;;;0.37;100.00;99530.41;5254094;33;34457;-84
2022/11/22 05:51:18;;;;;;;17.37;9.10;;;;;;;0.30;100.00;99531.09;5254628;33;33718;-84
2022/11/22 05:54:21;;;;;;;18.62;9.43;;;;;;;0.30;100.00;99526.63;5255026;33;34266;-84
2022/11/22 05:57:23;;;;;;;14.10;8.25;;;;;;;0.26;100.00;99527.00;5255147;33;33811;-84
2022/11/22 06:00:27;;;;;;;14.85;8.60;;;;;;;0.26;100.00;99527.84;5254217;33;34160;-84
2022/11/22 06:03:30;;;;;;;17.12;8.43;;;;;;;0.27;100.00;99532.19;5254228;33;33703;-87
2022/11/22 06:06:32;;;;;;;17.00;8.40;;;;;;;0.27;100.00;99539.28;5254146;33;34739;-88
2022/11/22 06:09:36;;;;;;;20.73;9.38;;;;;;;0.29;100.00;99546.09;5242061;33;32157;-88
2022/11/22 06:12:39;;;;;;;15.63;8.68;;;;;;;0.31;100.00;99556.59;5254189;33;33624;-88
2022/11/22 06:15:42;;;;;;;19.20;8.93;;;;;;;0.25;100.00;99559.75;5254406;33;34283;-84
2022/11/22 06:18:44;;;;;;;20.08;9.35;;;;;;;0.24;100.00;99553.63;5254770;33;33822;-84
2022/11/22 06:21:47;;;;;;;17.37;8.98;;;;;;;0.29;100.00;99561.16;5254563;33;33604;-84
2022/11/22 06:24:50;;;;;;;24.98;10.05;;;;;;;0.42;100.00;99553.84;5255785;33;33673;-85
2022/11/22 06:27:58;;;;;;;37.25;14.05;;;;;;;0.46;100.00;99557.88;5258634;33;33408;-84
2022/11/22 06:31:01;;;;;;;37.13;15.40;;;;;;;0.51;100.00;99563.62;5255972;33;34427;-85
2022/11/22 06:34:05;;;;;;;45.15;15.90;;;;;;;0.57;100.00;99564.91;5257406;33;33648;-84
2022/11/22 06:37:08;;;;;;;36.17;15.13;;;;;;;0.63;100.00;99559.91;5258970;33;34653;-84
2022/11/22 06:40:11;;;;;;;34.22;14.43;;;;;;;0.62;100.00;99560.88;5255265;33;33874;-85
2022/11/22 06:43:13;;;;;;;27.73;12.75;;;;;;;0.70;100.00;99562.84;5254425;33;34351;-85
2022/11/22 06:46:18;;;;;;;25.37;12.30;;;;;;;0.75;100.00;99550.03;5241808;33;33100;-84
2022/11/22 06:49:21;;;;;;;25.70;12.68;;;;;;;0.77;100.00;99539.31;5254839;33;34401;-85
2022/11/22 06:52:25;;;;;;;25.37;13.15;;;;;;;0.84;100.00;99553.69;5254119;33;34286;-85
2022/11/22 06:55:27;;;;;;;23.20;12.40;;;;;;;0.86;100.00;99555.22;5236467;33;33885;-85
2022/11/22 06:58:51;;;;;;;22.90;11.38;;;;;;;0.88;100.00;99553.28;5232506;33;290070;-85
2022/11/22 07:01:55;;;;;;;20.73;10.70;;;;;;;1.06;100.00;99552.63;5242487;33;34239;-85
2022/11/22 07:05:04;;;;;;;24.08;11.25;;;;;;;1.13;100.00;99549.28;5250753;33;34361;-84
2022/11/22 07:08:31;;;;;;;20.35;10.02;;;;;;;1.31;100.00;99554.72;5248741;33;34347;-85
2022/11/22 07:11:35;;;;;;;19.83;10.57;;;;;;;1.43;100.00;99549.28;5231319;33;33422;-85
2022/11/22 07:14:37;;;;;;;16.23;9.38;;;;;;;1.51;100.00;99568.84;5251401;33;34548;-85
2022/11/22 07:17:41;;;;;;;19.92;9.13;;;;;;;1.61;100.00;99560.03;5238927;33;33915;-85
2022/11/22 07:20:43;;;;;;;16.60;8.88;;;;;;;1.70;100.00;99549.44;5242222;33;33603;-84
2022/11/22 07:23:48;;;;;;;16.35;8.80;;;;;;;1.68;100.00;99555.84;5249456;33;33938;-84
2022/11/22 07:26:51;;;;;;;16.50;8.65;;;;;;;1.73;100.00;99549.16;5253249;33;33872;-84
2022/11/22 07:29:54;;;;;;;16.45;8.07;;;;;;;1.79;100.00;99553.88;5237258;33;34301;-85
2022/11/22 07:32:56;;;;;;;17.90;8.65;;;;;;;1.99;100.00;99560.00;5227360;33;33032;-84
2022/11/22 07:36:11;;;;;;;15.88;8.43;;;;;;;2.10;100.00;99564.28;5250528;33;33938;-84
2022/11/22 07:39:14;;;;;;;16.25;8.38;;;;;;;2.17;100.00;99560.09;5252646;33;34063;-89
2022/11/22 07:42:17;;;;;;;14.85;8.45;;;;;;;2.26;100.00;99553.91;5242893;33;33931;-89
2022/11/22 07:45:27;;;;;;;14.65;8.18;;;;;;;2.46;100.00;99556.50;5238900;33;33829;-85
2022/11/22 07:48:30;;;;;;;19.45;9.38;;;;;;;2.44;100.00;99564.59;5237730;33;34108;-85
2022/11/22 07:51:33;;;;;;;17.45;8.00;;;;;;;2.57;100.00;99564.25;5252458;33;33237;-85
2022/11/22 07:54:36;;;;;;;15.57;7.97;;;;;;;2.70;100.00;99569.25;5239586;33;32175;-85
2022/11/22 07:57:38;;;;;;;16.45;8.70;;;;;;;2.62;100.00;99551.37;5253743;33;33800;-85
2022/11/22 08:00:41;;;;;;;19.52;8.95;;;;;;;2.76;100.00;99546.56;5241583;33;31909;-84
2022/11/22 08:03:45;;;;;;;16.37;7.78;;;;;;;2.82;100.00;99551.28;5250746;33;34351;-83
2022/11/22 08:06:47;;;;;;;17.75;8.50;;;;;;;2.92;100.00;99546.75;5245863;33;33747;-83
2022/11/22 08:09:50;;;;;;;16.20;8.73;;;;;;;3.05;100.00;99541.09;5244566;33;33629;-84
2022/11/22 08:12:52;;;;;;;17.77;8.90;;;;;;;3.17;100.00;99538.03;5245757;33;33641;-83
2022/11/22 08:16:01;;;;;;;16.12;7.62;;;;;;;3.17;100.00;99545.19;5246511;33;33613;-84
2022/11/22 08:19:07;;;;;;;16.90;8.60;;;;;;;3.23;100.00;99544.59;5249004;33;33235;-84
2022/11/22 08:22:09;;;;;;;18.23;8.63;;;;;;;3.26;100.00;99548.78;5249718;33;33781;-84
2022/11/22 08:25:12;;;;;;;16.02;8.57;;;;;;;3.39;100.00;99534.13;5254528;33;33709;-84
2022/11/22 08:28:15;;;;;;;16.60;8.38;;;;;;;3.40;100.00;99537.59;5247517;33;33885;-84
2022/11/22 08:31:19;;;;;;;17.20;8.95;;;;;;;3.38;100.00;99537.75;5245350;33;34974;-84
2022/11/22 08:34:24;;;;;;;17.75;8.23;;;;;;;3.33;100.00;99531.22;5241160;33;33382;-84
2022/11/22 08:37:27;;;;;;;17.50;8.77;;;;;;;3.36;100.00;99534.41;5256165;33;34449;-84
2022/11/22 08:40:30;;;;;;;16.67;8.40;;;;;;;3.43;100.00;99541.78;5247047;33;34740;-84
2022/11/22 08:43:36;;;;;;;15.60;8.38;;;;;;;3.51;100.00;99544.50;5245879;33;34538;-84
2022/11/22 08:46:39;;;;;;;14.65;7.85;;;;;;;3.53;100.00;99538.03;5244085;33;34520;-84
2022/11/22 08:49:43;;;;;;;17.95;8.27;;;;;;;3.69;100.00;99540.03;5249001;33;33888;-86
2022/11/22 08:52:46;;;;;;;15.02;8.50;;;;;;;3.74;100.00;99542.19;5249679;33;33777;-83
2022/11/22 08:55:49;;;;;;;15.80;9.13;;;;;;;3.79;100.00;99537.25;5233878;33;32925;-85
2022/11/22 08:58:53;;;;;;;19.80;9.07;;;;;;;3.75;100.00;99543.87;5228916;33;33043;-85
2022/11/22 09:01:55;;;;;;;15.95;8.55;;;;;;;3.63;100.00;99544.13;5241338;33;33745;-85
2022/11/22 09:04:58;;;;;;;17.10;9.07;;;;;;;3.93;100.00;99536.69;5247628;33;33606;-82
2022/11/22 09:08:01;;;;;;;18.23;8.82;;;;;;;3.89;100.00;99535.34;5253100;33;33364;-84
2022/11/22 09:11:24;;;;;;;18.48;9.00;;;;;;;3.82;100.00;99539.59;5259912;33;34086;-84
2022/11/22 09:14:27;;;;;;;20.08;8.85;;;;;;;3.93;100.00;99541.19;5246487;33;33948;-84
2022/11/22 09:17:30;;;;;;;21.65;8.73;;;;;;;3.79;100.00;99522.09;5256628;33;33729;-86
2022/11/22 09:20:32;;;;;;;18.12;8.68;;;;;;;4.09;100.00;99526.16;5249083;33;32189;-84
2022/11/22 09:23:36;;;;;;;18.33;9.43;;;;;;;3.99;100.00;99524.59;5249942;33;33589;-84
2022/11/22 09:26:38;;;;;;;21.23;9.50;;;;;;;4.03;100.00;99523.25;5252922;33;32340;-84
2022/11/22 09:29:41;;;;;;;20.20;10.02;;;;;;;4.09;100.00;99519.97;5247577;33;34108;-85
2022/11/22 09:32:44;;;;;;;18.87;8.95;;;;;;;4.24;100.00;99518.41;5241300;33;34078;-88
2022/11/22 09:35:46;;;;;;;22.08;9.07;;;;;;;4.37;100.00;99517.97;5241953;33;35080;-89
2022/11/22 09:38:50;;;;;;;21.98;9.23;;;;;;;4.19;100.00;99515.38;5253777;33;34219;-88
2022/11/22 09:42:09;;;;;;;21.70;10.52;;;;;;;4.48;100.00;99508.88;5256373;33;33814;-89
2022/11/22 09:45:14;;;;;;;22.40;9.75;;;;;;;4.53;100.00;99504.72;5240761;33;34902;-84
2022/11/22 09:48:36;;;;;;;19.98;10.25;;;;;;;4.40;100.00;99500.84;5244422;33;33743;-84
2022/11/22 09:51:46;;;;;;;20.73;10.20;;;;;;;4.75;100.00;99491.81;5238401;33;31451;-84
2022/11/22 09:54:56;;;;;;;25.62;10.73;;;;;;;4.60;100.00;99486.25;5246586;33;34550;-84
2022/11/22 09:58:32;;;;;;;21.87;10.43;;;;;;;4.66;100.00;99479.44;5238380;33;35245;-85
2022/11/22 10:01:41;;;;;;;23.40;10.65;;;;;;;4.85;100.00;99479.16;5238705;33;34553;-84
2022/11/22 10:04:49;;;;;;;21.67;10.40;;;;;;;5.12;100.00;99474.53;5241182;33;33638;-84
2022/11/22 10:08:09;;;;;;;26.02;11.10;;;;;;;5.27;100.00;99456.06;5245359;33;34055;-85
2022/11/22 10:11:33;;;;;;;23.33;11.12;;;;;;;5.43;100.00;99456.03;5247236;33;33720;-85
2022/11/22 10:14:43;;;;;;;21.98;10.35;;;;;;;5.63;100.00;99459.19;5245721;33;34155;-89
2022/11/22 10:18:00;;;;;;;24.40;11.15;;;;;;;5.48;100.00;99444.87;5240865;33;33791;-89
2022/11/22 10:21:03;;;;;;;21.70;10.73;;;;;;;5.46;100.00;99448.53;5244000;33;33635;-85
2022/11/22 10:24:14;;;;;;;24.63;11.32;;;;;;;5.77;100.00;99444.34;5242139;33;33408;-85
2022/11/22 10:27:16;;;;;;;;;;;;;;;5.95;100.00;99444.97;5244808;33;34246;-85
2022/11/22 10:30:20;;;;;;;20.60;9.95;;;;;;;6.08;100.00;99434.59;5246493;33;33506;-85
2022/11/22 10:34:07;;;;;;;20.90;10.93;;;;;;;5.98;100.00;99439.28;5250466;33;33339;-85
2022/11/22 10:37:12;;;;;;;20.77;11.07;;;;;;;6.08;100.00;99441.75;5208369;34;34650;-85
2022/11/22 10:40:35;;;;;;;30.30;12.75;;;;;;;5.90;100.00;99433.94;5231197;34;33850;-85
2022/11/22 10:43:54;;;;;;;27.58;12.43;;;;;;;5.38;100.00;99435.19;5246734;33;33694;-84
2022/11/22 10:47:29;;;;;;;25.60;11.48;;;;;;;5.23;100.00;99440.38;5247420;33;34478;-83
2022/11/22 10:50:45;;;;;;;24.58;11.93;;;;;;;5.61;100.00;99424.63;5244607;33;32336;-88
2022/11/22 10:54:22;;;;;;;26.80;12.32;;;;;;;5.57;100.00;99409.16;5246942;33;34367;-84
2022/11/22 10:57:36;;;;;;;23.12;11.57;;;;;;;5.45;100.00;99406.81;5207131;33;33068;-84
2022/11/22 11:00:43;;;;;;;27.50;12.52;;;;;;;5.37;100.00;99403.31;5255312;33;33371;-82
2022/11/22 11:03:50;;;;;;;22.92;12.20;;;;;;;5.52;100.00;99395.47;5253592;33;33915;-83
2022/11/22 11:06:57;;;;;;;26.33;13.02;;;;;;;5.57;100.00;99385.13;5244578;33;34859;-83
2022/11/22 11:10:17;;;;;;;26.58;13.40;;;;;;;5.61;100.00;99381.09;5256051;33;33836;-84
2022/11/22 11:13:46;;;;;;;25.92;12.55;;;;;;;5.72;100.00;99378.06;5251187;33;33898;-83
2022/11/22 11:16:50;;;;;;;23.48;12.63;;;;;;;5.81;100.00;99366.34;5242326;33;33746;-84
2022/11/22 11:19:58;;;;;;;24.33;12.90;;;;;;;5.81;100.00;99377.03;5246871;33;33361;-84
2022/11/22 11:23:01;;;;;;;24.77;12.05;;;;;;;5.88;100.00;99366.50;5252378;33;34479;-83
2022/11/22 11:26:29;;;;;;;25.40;13.70;;;;;;;5.97;100.00;99368.19;5242649;33;34287;-89
2022/11/22 11:29:38;;;;;;;25.05;12.98;;;;;;;6.19;100.00;99355.88;5247631;33;32438;-85
2022/11/22 11:32:55;;;;;;;26.83;12.30;;;;;;;6.00;100.00;99350.97;5244700;33;33942;-85
2022/11/22 11:36:06;;;;;;;27.50;12.90;;;;;;;6.02;100.00;99344.41;5249354;33;33594;-85
2022/11/22 11:39:20;;;;;;;26.02;13.65;;;;;;;6.07;100.00;99335.91;5244175;33;33226;-84
2022/11/22 11:42:24;;;;;;;24.75;12.82;;;;;;;6.18;100.00;99345.37;5249342;33;35089;-84
2022/11/22 11:45:28;;;;;;;26.65;13.90;;;;;;;6.33;100.00;99332.91;5255577;33;33721;-84
2022/11/22 11:48:42;;;;;;;26.62;13.45;;;;;;;6.43;100.00;99330.00;5250685;33;33656;-84
2022/11/22 11:52:18;;;;;;;28.38;13.85;;;;;;;6.27;100.00;99329.09;5253956;33;35268;-84
2022/11/22 11:55:21;;;;;;;25.45;13.40;;;;;;;6.01;100.00;99317.91;5239795;33;34810;-84
2022/11/22 11:58:24;;;;;;;28.58;14.60;;;;;;;6.12;100.00;99313.00;5234375;33;32264;-85
2022/11/22 12:01:27;;;;;;;27.05;15.57;;;;;;;5.92;100.00;99306.38;5248348;33;34235;-85
2022/11/22 12:04:36;;;;;;;29.45;15.43;;;;;;;5.97;100.00;99306.72;5250431;33;33327;-85
2022/11/22 12:07:46;;;;;;;26.62;13.52;;;;;;;6.15;100.00;99301.13;5253187;33;33694;-84
2022/11/22 12:11:00;;;;;;;26.67;15.27;;;;;;;6.32;100.00;99293.84;5255184;33;35009;-84
2022/11/22 12:14:06;;;;;;;31.42;13.75;;;;;;;5.87;100.00;99287.38;5240793;33;33606;-84
2022/11/22 12:17:29;;;;;;;28.90;13.85;;;;;;;5.82;100.00;99298.59;5252300;33;34441;-85
2022/11/22 12:20:40;;;;;;;29.10;14.48;;;;;;;5.71;100.00;99287.47;5253767;33;34467;-85
2022/11/22 12:23:55;;;;;;;26.12;12.63;;;;;;;5.75;100.00;99284.25;5243186;33;33827;-85
2022/11/22 12:27:18;;;;;;;31.15;14.00;;;;;;;5.70;100.00;99275.91;5244718;33;33358;-84
2022/11/22 12:30:22;;;;;;;30.73;14.95;;;;;;;5.64;100.00;99277.44;5236553;33;33799;-85
2022/11/22 12:33:32;;;;;;;33.05;15.38;;;;;;;5.69;100.00;99268.94;5238347;33;33626;-85
2022/11/22 12:36:58;;;;;;;30.83;14.70;;;;;;;5.70;100.00;99265.25;5257671;33;34508;-85
2022/11/22 12:40:12;;;;;;;33.63;15.10;;;;;;;5.50;100.00;99258.66;5250720;33;34029;-85
2022/11/22 12:43:25;;;;;;;28.30;14.75;;;;;;;5.54;100.00;99260.81;5254527;33;34803;-85
2022/11/22 12:46:40;;;;;;;30.15;13.90;;;;;;;5.55;100.00;99262.47;5251845;33;34909;-85
2022/11/22 12:49:47;;;;;;;29.33;14.00;;;;;;;5.61;100.00;99260.94;5235338;33;32014;-85
2022/11/22 12:52:57;;;;;;;30.67;14.75;;;;;;;5.55;100.00;99257.13;5242924;33;33212;-84
2022/11/22 12:56:09;;;;;;;27.02;14.38;;;;;;;5.45;100.00;99264.53;5245357;33;33385;-89
2022/11/22 12:59:26;;;;;;;25.65;13.55;;;;;;;5.56;100.00;99253.47;5246129;33;34658;-88
2022/11/22 13:02:32;;;;;;;25.42;12.68;;;;;;;5.52;100.00;99257.47;5229569;33;32553;-85
2022/11/22 13:05:55;;;;;;;22.77;12.10;;;;;;;5.48;100.00;99250.00;5242512;33;34246;-85
2022/11/22 13:09:02;;;;;;;27.35;14.32;;;;;;;5.35;100.00;99240.72;5250351;33;33838;-84
2022/11/22 13:12:15;;;;;;;26.27;13.48;;;;;;;5.23;100.00;99244.72;5246566;33;34427;-85
2022/11/22 13:15:26;;;;;;;27.08;13.02;;;;;;;5.12;100.00;99243.28;5254416;33;33760;-84
2022/11/22 13:18:32;;;;;;;28.58;13.88;;;;;;;5.13;100.00;99238.78;5253432;33;35907;-84
2022/11/22 13:21:50;;;;;;;22.80;12.30;;;;;;;5.15;100.00;99245.59;5253355;33;34357;-85
2022/11/22 13:25:15;;;;;;;31.17;13.50;;;;;;;5.06;100.00;99240.44;5255210;33;34497;-85
2022/11/22 13:28:22;;;;;;;23.85;11.90;;;;;;;4.98;100.00;99249.31;5254428;33;34412;-85
2022/11/22 13:31:25;;;;;;;27.70;13.10;;;;;;;4.98;100.00;99250.12;5244971;33;33332;-85
2022/11/22 13:34:29;;;;;;;23.20;10.70;;;;;;;4.90;100.00;99235.97;5256514;33;33875;-85
2022/11/22 13:37:39;;;;;;;21.52;10.88;;;;;;;4.78;100.00;99239.00;5231506;33;32227;-85
2022/11/22 13:40:45;;;;;;;24.12;11.60;;;;;;;4.76;100.00;99251.66;5245734;33;34819;-85
2022/11/22 13:43:52;;;;;;;22.20;12.20;;;;;;;4.86;100.00;99240.81;5238984;33;33512;-86
2022/11/22 13:47:03;;;;;;;22.33;10.52;;;;;;;4.80;100.00;99240.66;5241586;33;34697;-89
2022/11/22 13:50:41;;;;;;;21.52;10.30;;;;;;;4.56;100.00;99242.34;5247102;33;34752;-86
2022/11/22 13:53:46;;;;;;;23.00;10.50;;;;;;;4.51;100.00;99242.84;5246302;33;32604;-85
2022/11/22 13:56:59;;;;;;;21.62;9.98;;;;;;;4.27;100.00;99240.16;5240798;33;31952;-85
2022/11/22 14:00:11;;;;;;;20.92;10.73;;;;;;;4.18;100.00;99230.50;5248500;33;34599;-86
2022/11/22 14:03:41;;;;;;;19.67;10.38;;;;;;;4.28;100.00;99226.69;5237768;33;33768;-84
2022/11/22 14:07:09;;;;;;;23.05;10.88;;;;;;;4.30;100.00;99235.34;5225749;33;32984;-84
2022/11/22 14:10:36;;;;;;;22.95;10.45;;;;;;;4.16;100.00;99236.00;5244800;33;34446;-84
2022/11/22 14:14:07;;;;;;;22.77;11.15;;;;;;;4.21;100.00;99243.50;5223921;34;32246;-84
2022/11/22 14:17:38;;;;;;;19.67;9.95;;;;;;;4.05;100.00;99242.47;5227920;33;33109;-84
2022/11/22 14:20:55;;;;;;;23.23;9.73;;;;;;;4.07;100.00;99239.66;5248926;33;34142;-84
2022/11/22 14:24:27;;;;;;;23.17;10.93;;;;;;;4.06;100.00;99230.00;5237066;33;32443;-84
2022/11/22 14:27:59;;;;;;;23.85;9.85;;;;;;;3.99;100.00;99235.16;5239134;33;33574;-84
2022/11/22 14:31:20;;;;;;;20.52;10.30;;;;;;;4.02;100.00;99228.66;5250228;33;33374;-83
2022/11/22 14:34:27;;;;;;;19.75;9.98;;;;;;;3.87;100.00;99234.62;5242545;33;33609;-84
2022/11/22 14:37:31;;;;;;;23.77;10.63;;;;;;;3.97;100.00;99234.47;5256090;33;33405;-83
2022/11/22 14:40:35;;;;;;;20.67;9.48;;;;;;;3.98;100.00;99235.28;5253451;33;33916;-85
2022/11/22 14:43:40;;;;;;;21.75;10.52;;;;;;;4.01;100.00;99224.34;5252950;33;34198;-87
2022/11/22 14:46:47;;;;;;;19.30;9.20;;;;;;;4.02;100.00;99226.81;5237112;33;32578;-90
2022/11/22 14:49:56;;;;;;;20.12;10.60;;;;;;;3.84;100.00;99236.78;5236308;33;32824;-84
2022/11/22 14:53:15;;;;;;;19.85;9.77;;;;;;;3.93;100.00;99234.97;5242184;33;34371;-85
2022/11/22 14:56:33;;;;;;;19.98;9.45;;;;;;;3.90;100.00;99236.13;5238599;33;33283;-85
2022/11/22 14:59:58;;;;;;;20.17;10.98;;;;;;;3.75;100.00;99230.59;5231416;33;32230;-84
2022/11/22 15:03:35;;;;;;;23.48;10.63;;;;;;;3.77;100.00;99228.63;5244658;33;34663;-84
2022/11/22 15:07:03;;;;;;;20.40;10.38;;;;;;;3.82;100.00;99228.12;5245922;33;33611;-85
2022/11/22 15:10:44;;;;;;;24.50;10.48;;;;;;;3.81;100.00;99232.63;5226302;33;33965;-85
2022/11/22 15:14:40;;;;;;;24.40;10.93;;;;;;;3.80;100.00;99217.66;5237010;33;32236;-86
2022/11/22 15:17:43;;;;;;;19.65;10.05;;;;;;;3.83;100.00;99221.78;5250206;33;33852;-85
2022/11/22 15:21:29;;;;;;;21.85;9.77;;;;;;;3.77;100.00;99211.78;5253091;33;34543;-85
2022/11/22 15:24:55;;;;;;;22.35;11.00;;;;;;;3.77;100.00;99217.97;5235727;34;33948;-85
2022/11/22 15:28:20;;;;;;;20.17;9.25;;;;;;;3.70;100.00;99227.59;5241800;33;33549;-85
2022/11/22 15:31:43;;;;;;;22.05;10.32;;;;;;;3.71;100.00;99239.06;5241270;33;33424;-85
2022/11/22 15:35:12;;;;;;;20.80;10.48;;;;;;;3.75;100.00;99232.44;5254584;33;34624;-85
2022/11/22 15:38:39;;;;;;;19.30;9.60;;;;;;;3.70;100.00;99238.22;5259177;33;34718;-85
2022/11/22 15:42:15;;;;;;;24.42;10.20;;;;;;;3.69;100.00;99228.59;5246640;33;32984;-85
2022/11/22 15:45:42;;;;;;;22.75;10.40;;;;;;;3.73;100.00;99216.63;5245406;33;33730;-85
2022/11/22 15:49:06;;;;;;;20.77;9.55;;;;;;;3.71;100.00;99231.91;5244061;33;34590;-85
2022/11/22 15:52:31;;;;;;;18.83;9.50;;;;;;;3.66;100.00;99231.56;5230156;33;32124;-85
2022/11/22 15:55:56;;;;;;;20.35;10.38;;;;;;;3.76;100.00;99234.91;5242786;33;33644;-85
2022/11/22 15:59:45;;;;;;;22.92;10.35;;;;;;;3.72;100.00;99230.94;5250515;33;33656;-85
2022/11/22 16:02:53;;;;;;;22.70;11.45;;;;;;;3.67;100.00;99229.75;5252353;33;33955;-84
2022/11/22 16:06:02;;;;;;;19.23;9.77;;;;;;;3.78;100.00;99221.47;5253092;33;34502;-85
2022/11/22 16:09:23;;;;;;;20.90;10.15;;;;;;;3.82;100.00;99215.63;5252734;33;33553;-84
2022/11/22 16:12:37;;;;;;;18.85;10.05;;;;;;;3.78;100.00;99219.62;5255442;33;33891;-85
2022/11/22 16:15:40;;;;;;;18.90;9.73;;;;;;;3.75;100.00;99211.97;5242204;33;32057;-85
2022/11/22 16:18:43;;;;;;;25.00;10.48;;;;;;;3.75;100.00;99216.47;5255065;33;33576;-85
2022/11/22 16:21:56;;;;;;;18.00;9.07;;;;;;;3.80;100.00;99216.78;5255016;33;33770;-85
2022/11/22 16:25:21;;;;;;;19.25;9.98;;;;;;;3.80;100.00;99214.13;5254945;33;33854;-84
2022/11/22 16:28:32;;;;;;;18.33;9.60;;;;;;;3.77;100.00;99202.00;5255186;33;33455;-85
2022/11/22 16:31:38;;;;;;;17.80;8.98;;;;;;;3.81;100.00;99210.50;5255811;33;33767;-85
2022/11/22 16:34:42;;;;;;;19.58;10.10;;;;;;;3.72;100.00;99206.16;5259821;33;33826;-85
2022/11/22 16:37:45;;;;;;;20.40;10.32;;;;;;;3.74;100.00;99210.28;5258761;33;34516;-85
2022/11/22 16:40:51;;;;;;;19.85;10.73;;;;;;;3.71;100.00;99207.94;5259125;33;33855;-85
2022/11/22 16:43:58;;;;;;;20.17;10.68;;;;;;;3.75;100.00;99203.16;5248442;33;33153;-84
2022/11/22 16:47:00;;;;;;;21.35;10.35;;;;;;;3.77;100.00;99199.34;5244131;33;32078;-84
2022/11/22 16:50:04;;;;;;;17.30;9.30;;;;;;;3.81;100.00;99197.19;5255578;33;34318;-85
2022/11/22 16:53:12;;;;;;;17.37;8.98;;;;;;;3.77;100.00;99196.69;5242021;33;32868;-85
2022/11/22 16:56:21;;;;;;;18.77;9.75;;;;;;;3.77;100.00;99194.00;5254887;33;33851;-85
